sensor_id;sensor_type;location;lat;lon;timestamp;temperature;humidity
5466;DHT22;2755;50.728;7.108;2023-05-07T00:00:03;13.00;99.90
5466;DHT22;2755;50.728;7.108;2023-05-07T00:02:32;13.60;99.90
5466;DHT22;2755;50.728;7.108;2023-05-07T00:04:58;13.20;99.90
5466;DHT22;2755;50.728;7.108;2023-05-07T00:07:23;13.90;99.90
5466;DHT22;2755;50.728;7.108;2023-05-07T00:09:49;13.70;99.90
5466;DHT22;2755;50.728;7.108;2023-05-07T00:12:15;14.00;99.90
5466;DHT22;2755;50.728;7.108;2023-05-07T00:14:40;13.40;99.90
5466;DHT22;2755;50.728;7.108;2023-05-07T00:17:06;13.10;99.90
5466;DHT22;2755;50.728;7.108;2023-05-07T00:19:31;14.30;99.90
5466;DHT22;2755;50.728;7.108;2023-05-07T00:21:57;13.40;99.90
5466;DHT22;2755;50.728;7.108;2023-05-07T00:24:24;13.70;99.90
5466;DHT22;2755;50.728;7.108;2023-05-07T00:26:49;13.60;99.90
5466;DHT22;2755;50.728;7.108;2023-05-07T00:29:15;13.30;99.90
5466;DHT22;2755;50.728;7.108;2023-05-07T00:31:41;13.30;99.90
5466;DHT22;2755;50.728;7.108;2023-05-07T00:34:06;13.40;99.90
5466;DHT22;2755;50.728;7.108;2023-05-07T00:36:32;13.30;99.90
5466;DHT22;2755;50.728;7.108;2023-05-07T00:38:59;13.60;99.90
5466;DHT22;2755;50.728;7.108;2023-05-07T00:41:26;13.20;99.90
5466;DHT22;2755;50.728;7.108;2023-05-07T00:43:51;14.20;99.90
5466;DHT22;2755;50.728;7.108;2023-05-07T00:46:18;13.60;99.90
5466;DHT22;2755;50.728;7.108;2023-05-07T00:48:45;13.10;99.90
5466;DHT22;2755;50.728;7.108;2023-05-07T00:51:11;13.00;99.90
5466;DHT22;2755;50.728;7.108;2023-05-07T00:53:37;13.10;99.90
5466;DHT22;2755;50.728;7.108;2023-05-07T00:56:02;13.50;99.90
5466;DHT22;2755;50.728;7.108;2023-05-07T00:58:28;13.80;99.90
5466;DHT22;2755;50.728;7.108;2023-05-07T01:00:53;13.60;99.90
5466;DHT22;2755;50.728;7.108;2023-05-07T01:03:20;13.50;99.90
5466;DHT22;2755;50.728;7.108;2023-05-07T01:05:46;13.70;99.90
5466;DHT22;2755;50.728;7.108;2023-05-07T01:10:40;13.20;99.90
5466;DHT22;2755;50.728;7.108;2023-05-07T01:13:12;13.50;99.90
5466;DHT22;2755;50.728;7.108;2023-05-07T01:15:38;13.70;99.90
5466;DHT22;2755;50.728;7.108;2023-05-07T01:18:06;13.10;99.90
5466;DHT22;2755;50.728;7.108;2023-05-07T01:20:32;13.30;99.90
5466;DHT22;2755;50.728;7.108;2023-05-07T01:22:57;13.50;99.90
5466;DHT22;2755;50.728;7.108;2023-05-07T01:25:24;13.30;99.90
5466;DHT22;2755;50.728;7.108;2023-05-07T01:27:50;13.60;99.90
5466;DHT22;2755;50.728;7.108;2023-05-07T01:30:16;13.40;99.90
5466;DHT22;2755;50.728;7.108;2023-05-07T01:32:51;13.40;99.90
5466;DHT22;2755;50.728;7.108;2023-05-07T01:35:20;12.60;99.90
5466;DHT22;2755;50.728;7.108;2023-05-07T01:37:48;12.90;99.90
5466;DHT22;2755;50.728;7.108;2023-05-07T01:40:15;13.50;99.90
5466;DHT22;2755;50.728;7.108;2023-05-07T01:42:44;13.70;99.90
5466;DHT22;2755;50.728;7.108;2023-05-07T01:45:10;13.40;99.90
5466;DHT22;2755;50.728;7.108;2023-05-07T01:47:37;13.00;99.90
5466;DHT22;2755;50.728;7.108;2023-05-07T01:50:05;13.50;99.90
5466;DHT22;2755;50.728;7.108;2023-05-07T01:52:31;13.30;99.90
5466;DHT22;2755;50.728;7.108;2023-05-07T01:54:56;13.00;99.90
5466;DHT22;2755;50.728;7.108;2023-05-07T01:57:22;13.10;99.90
5466;DHT22;2755;50.728;7.108;2023-05-07T02:02:14;13.40;99.90
5466;DHT22;2755;50.728;7.108;2023-05-07T02:04:39;13.10;99.90
5466;DHT22;2755;50.728;7.108;2023-05-07T02:07:05;13.30;99.90
5466;DHT22;2755;50.728;7.108;2023-05-07T02:09:30;12.90;99.90
5466;DHT22;2755;50.728;7.108;2023-05-07T02:11:56;13.30;99.90
5466;DHT22;2755;50.728;7.108;2023-05-07T02:14:22;13.10;99.90
5466;DHT22;2755;50.728;7.108;2023-05-07T02:16:47;13.30;99.90
5466;DHT22;2755;50.728;7.108;2023-05-07T02:19:13;13.20;99.90
5466;DHT22;2755;50.728;7.108;2023-05-07T02:24:05;13.20;99.90
5466;DHT22;2755;50.728;7.108;2023-05-07T02:26:30;12.80;99.90
5466;DHT22;2755;50.728;7.108;2023-05-07T02:28:56;13.40;99.90
5466;DHT22;2755;50.728;7.108;2023-05-07T02:31:21;12.70;99.90
5466;DHT22;2755;50.728;7.108;2023-05-07T02:33:47;13.10;99.90
5466;DHT22;2755;50.728;7.108;2023-05-07T02:41:05;13.00;99.90
5466;DHT22;2755;50.728;7.108;2023-05-07T02:43:30;13.20;99.90
5466;DHT22;2755;50.728;7.108;2023-05-07T02:46:06;13.50;99.90
5466;DHT22;2755;50.728;7.108;2023-05-07T02:48:32;13.10;99.90
5466;DHT22;2755;50.728;7.108;2023-05-07T02:50:59;13.00;99.90
5466;DHT22;2755;50.728;7.108;2023-05-07T02:53:25;13.10;99.90
5466;DHT22;2755;50.728;7.108;2023-05-07T02:55:56;13.40;99.90
5466;DHT22;2755;50.728;7.108;2023-05-07T02:58:22;13.00;99.90
5466;DHT22;2755;50.728;7.108;2023-05-07T03:03:14;13.50;99.90
5466;DHT22;2755;50.728;7.108;2023-05-07T03:05:40;12.80;99.90
5466;DHT22;2755;50.728;7.108;2023-05-07T03:10:32;13.10;99.90
5466;DHT22;2755;50.728;7.108;2023-05-07T03:12:58;13.00;99.90
5466;DHT22;2755;50.728;7.108;2023-05-07T03:15:23;13.50;99.90
5466;DHT22;2755;50.728;7.108;2023-05-07T03:17:49;12.40;99.90
5466;DHT22;2755;50.728;7.108;2023-05-07T03:20:14;13.20;99.90
5466;DHT22;2755;50.728;7.108;2023-05-07T03:22:40;12.80;99.90
5466;DHT22;2755;50.728;7.108;2023-05-07T03:25:07;13.10;99.90
5466;DHT22;2755;50.728;7.108;2023-05-07T03:27:32;12.90;99.90
5466;DHT22;2755;50.728;7.108;2023-05-07T03:29:58;12.60;99.90
5466;DHT22;2755;50.728;7.108;2023-05-07T03:32:24;12.40;99.90
5466;DHT22;2755;50.728;7.108;2023-05-07T03:34:49;13.00;99.90
5466;DHT22;2755;50.728;7.108;2023-05-07T03:37:15;12.70;99.90
5466;DHT22;2755;50.728;7.108;2023-05-07T03:39:41;12.90;99.90
5466;DHT22;2755;50.728;7.108;2023-05-07T03:42:06;13.00;99.90
5466;DHT22;2755;50.728;7.108;2023-05-07T03:44:32;14.70;99.90
5466;DHT22;2755;50.728;7.108;2023-05-07T03:46:57;12.90;99.90
5466;DHT22;2755;50.728;7.108;2023-05-07T03:49:23;13.00;99.90
5466;DHT22;2755;50.728;7.108;2023-05-07T03:51:49;13.10;99.90
5466;DHT22;2755;50.728;7.108;2023-05-07T03:54:14;13.10;99.90
5466;DHT22;2755;50.728;7.108;2023-05-07T03:59:06;13.00;99.90
5466;DHT22;2755;50.728;7.108;2023-05-07T04:01:31;13.20;99.90
5466;DHT22;2755;50.728;7.108;2023-05-07T04:03:57;12.80;99.90
5466;DHT22;2755;50.728;7.108;2023-05-07T04:06:22;12.80;99.90
5466;DHT22;2755;50.728;7.108;2023-05-07T04:08:48;13.00;99.90
5466;DHT22;2755;50.728;7.108;2023-05-07T04:11:14;13.00;99.90
5466;DHT22;2755;50.728;7.108;2023-05-07T04:13:39;12.70;99.90
5466;DHT22;2755;50.728;7.108;2023-05-07T04:16:06;13.50;99.90
5466;DHT22;2755;50.728;7.108;2023-05-07T04:18:32;13.50;99.90
5466;DHT22;2755;50.728;7.108;2023-05-07T04:20:57;13.50;99.90
5466;DHT22;2755;50.728;7.108;2023-05-07T04:23:23;13.00;99.90
5466;DHT22;2755;50.728;7.108;2023-05-07T04:25:48;12.90;99.90
5466;DHT22;2755;50.728;7.108;2023-05-07T04:28:14;12.90;99.90
5466;DHT22;2755;50.728;7.108;2023-05-07T04:30:40;13.60;99.90
5466;DHT22;2755;50.728;7.108;2023-05-07T04:33:06;13.00;99.90
5466;DHT22;2755;50.728;7.108;2023-05-07T04:35:32;12.90;99.90
5466;DHT22;2755;50.728;7.108;2023-05-07T04:37:58;13.00;99.90
5466;DHT22;2755;50.728;7.108;2023-05-07T04:40:24;13.30;99.90
5466;DHT22;2755;50.728;7.108;2023-05-07T04:42:49;13.60;99.90
5466;DHT22;2755;50.728;7.108;2023-05-07T04:45:15;13.70;99.90
5466;DHT22;2755;50.728;7.108;2023-05-07T04:47:40;13.10;99.90
5466;DHT22;2755;50.728;7.108;2023-05-07T04:50:07;13.20;99.90
5466;DHT22;2755;50.728;7.108;2023-05-07T04:52:33;13.40;99.90
5466;DHT22;2755;50.728;7.108;2023-05-07T04:54:59;13.60;99.90
5466;DHT22;2755;50.728;7.108;2023-05-07T04:57:26;13.30;99.90
5466;DHT22;2755;50.728;7.108;2023-05-07T04:59:52;13.50;99.90
5466;DHT22;2755;50.728;7.108;2023-05-07T05:02:18;13.40;99.90
5466;DHT22;2755;50.728;7.108;2023-05-07T05:04:43;13.20;99.90
5466;DHT22;2755;50.728;7.108;2023-05-07T05:07:09;13.00;99.90
5466;DHT22;2755;50.728;7.108;2023-05-07T05:09:35;13.30;99.90
5466;DHT22;2755;50.728;7.108;2023-05-07T05:12:00;13.80;99.90
5466;DHT22;2755;50.728;7.108;2023-05-07T05:14:26;13.50;99.90
5466;DHT22;2755;50.728;7.108;2023-05-07T05:16:52;13.30;99.90
5466;DHT22;2755;50.728;7.108;2023-05-07T05:19:18;14.00;99.90
5466;DHT22;2755;50.728;7.108;2023-05-07T05:21:43;13.50;99.90
5466;DHT22;2755;50.728;7.108;2023-05-07T05:24:09;14.20;99.90
5466;DHT22;2755;50.728;7.108;2023-05-07T05:26:34;14.10;99.90
5466;DHT22;2755;50.728;7.108;2023-05-07T05:33:52;14.80;99.90
5466;DHT22;2755;50.728;7.108;2023-05-07T05:38:44;14.00;99.90
5466;DHT22;2755;50.728;7.108;2023-05-07T05:41:10;14.50;99.90
5466;DHT22;2755;50.728;7.108;2023-05-07T05:43:35;13.60;99.90
5466;DHT22;2755;50.728;7.108;2023-05-07T05:46:01;14.30;99.90
5466;DHT22;2755;50.728;7.108;2023-05-07T05:48:28;14.10;99.90
5466;DHT22;2755;50.728;7.108;2023-05-07T05:50:54;13.40;99.90
5466;DHT22;2755;50.728;7.108;2023-05-07T05:53:20;14.80;99.90
5466;DHT22;2755;50.728;7.108;2023-05-07T05:55:45;14.50;99.90
5466;DHT22;2755;50.728;7.108;2023-05-07T05:58:11;14.90;99.90
5466;DHT22;2755;50.728;7.108;2023-05-07T06:00:37;13.80;99.90
5466;DHT22;2755;50.728;7.108;2023-05-07T06:03:02;14.80;99.90
5466;DHT22;2755;50.728;7.108;2023-05-07T06:05:28;14.70;99.90
5466;DHT22;2755;50.728;7.108;2023-05-07T06:07:54;15.10;99.90
5466;DHT22;2755;50.728;7.108;2023-05-07T06:12:45;15.60;99.90
5466;DHT22;2755;50.728;7.108;2023-05-07T06:15:11;16.40;99.90
5466;DHT22;2755;50.728;7.108;2023-05-07T06:17:37;15.90;99.90
5466;DHT22;2755;50.728;7.108;2023-05-07T06:20:03;16.20;99.90
5466;DHT22;2755;50.728;7.108;2023-05-07T06:22:28;15.90;99.90
5466;DHT22;2755;50.728;7.108;2023-05-07T06:24:54;16.00;99.90
5466;DHT22;2755;50.728;7.108;2023-05-07T06:29:48;16.10;99.90
5466;DHT22;2755;50.728;7.108;2023-05-07T06:32:13;16.00;99.90
5466;DHT22;2755;50.728;7.108;2023-05-07T06:34:40;16.10;99.90
5466;DHT22;2755;50.728;7.108;2023-05-07T06:39:32;16.60;99.90
5466;DHT22;2755;50.728;7.108;2023-05-07T06:41:58;17.20;99.90
5466;DHT22;2755;50.728;7.108;2023-05-07T06:44:23;16.40;99.90
5466;DHT22;2755;50.728;7.108;2023-05-07T06:46:49;16.10;97.90
5466;DHT22;2755;50.728;7.108;2023-05-07T06:49:15;16.90;99.10
5466;DHT22;2755;50.728;7.108;2023-05-07T06:51:40;16.70;95.90
5466;DHT22;2755;50.728;7.108;2023-05-07T06:54:06;16.90;94.80
5466;DHT22;2755;50.728;7.108;2023-05-07T06:56:33;17.00;95.70
5466;DHT22;2755;50.728;7.108;2023-05-07T06:59:00;17.20;90.60
5466;DHT22;2755;50.728;7.108;2023-05-07T07:01:25;17.00;92.70
5466;DHT22;2755;50.728;7.108;2023-05-07T07:03:51;16.90;92.20
5466;DHT22;2755;50.728;7.108;2023-05-07T07:06:17;17.30;92.70
5466;DHT22;2755;50.728;7.108;2023-05-07T07:11:09;17.50;87.30
5466;DHT22;2755;50.728;7.108;2023-05-07T07:13:35;17.30;89.50
5466;DHT22;2755;50.728;7.108;2023-05-07T07:16:01;18.00;90.30
5466;DHT22;2755;50.728;7.108;2023-05-07T07:18:26;17.60;83.80
5466;DHT22;2755;50.728;7.108;2023-05-07T07:20:52;17.70;76.40
5466;DHT22;2755;50.728;7.108;2023-05-07T07:23:18;17.80;83.80
5466;DHT22;2755;50.728;7.108;2023-05-07T07:28:09;17.70;74.70
5466;DHT22;2755;50.728;7.108;2023-05-07T07:30:36;17.60;81.20
5466;DHT22;2755;50.728;7.108;2023-05-07T07:33:02;17.70;74.20
5466;DHT22;2755;50.728;7.108;2023-05-07T07:35:32;18.60;76.30
5466;DHT22;2755;50.728;7.108;2023-05-07T07:40:24;16.70;75.20
5466;DHT22;2755;50.728;7.108;2023-05-07T07:42:50;17.60;85.10
5466;DHT22;2755;50.728;7.108;2023-05-07T07:45:16;17.50;84.40
5466;DHT22;2755;50.728;7.108;2023-05-07T07:47:42;17.80;83.60
5466;DHT22;2755;50.728;7.108;2023-05-07T07:50:08;17.50;79.50
5466;DHT22;2755;50.728;7.108;2023-05-07T07:52:34;17.80;78.50
5466;DHT22;2755;50.728;7.108;2023-05-07T07:55:00;18.00;76.00
5466;DHT22;2755;50.728;7.108;2023-05-07T07:57:26;17.70;83.30
5466;DHT22;2755;50.728;7.108;2023-05-07T08:02:17;18.10;71.80
5466;DHT22;2755;50.728;7.108;2023-05-07T08:04:43;18.40;74.10
5466;DHT22;2755;50.728;7.108;2023-05-07T08:07:10;18.60;68.30
5466;DHT22;2755;50.728;7.108;2023-05-07T08:09:39;18.60;66.00
5466;DHT22;2755;50.728;7.108;2023-05-07T08:12:06;20.30;73.30
5466;DHT22;2755;50.728;7.108;2023-05-07T08:14:32;19.30;66.00
5466;DHT22;2755;50.728;7.108;2023-05-07T08:16:58;20.00;64.30
5466;DHT22;2755;50.728;7.108;2023-05-07T08:19:23;19.50;61.10
5466;DHT22;2755;50.728;7.108;2023-05-07T08:21:49;20.10;58.40
5466;DHT22;2755;50.728;7.108;2023-05-07T08:26:41;20.90;36.60
5466;DHT22;2755;50.728;7.108;2023-05-07T08:29:07;20.30;34.50
5466;DHT22;2755;50.728;7.108;2023-05-07T08:31:33;20.60;33.80
5466;DHT22;2755;50.728;7.108;2023-05-07T08:33:59;20.60;33.50
5466;DHT22;2755;50.728;7.108;2023-05-07T08:36:25;20.40;33.20
5466;DHT22;2755;50.728;7.108;2023-05-07T08:38:51;20.50;34.70
5466;DHT22;2755;50.728;7.108;2023-05-07T08:43:48;20.40;40.00
5466;DHT22;2755;50.728;7.108;2023-05-07T08:46:18;19.80;38.70
5466;DHT22;2755;50.728;7.108;2023-05-07T08:48:45;19.90;32.90
5466;DHT22;2755;50.728;7.108;2023-05-07T08:51:15;19.70;30.80
5466;DHT22;2755;50.728;7.108;2023-05-07T08:56:08;20.40;37.00
5466;DHT22;2755;50.728;7.108;2023-05-07T09:01:07;20.30;34.80
5466;DHT22;2755;50.728;7.108;2023-05-07T09:03:33;20.60;32.20
5466;DHT22;2755;50.728;7.108;2023-05-07T09:05:59;21.00;34.60
5466;DHT22;2755;50.728;7.108;2023-05-07T09:08:26;21.40;35.20
5466;DHT22;2755;50.728;7.108;2023-05-07T09:10:52;22.00;30.80
5466;DHT22;2755;50.728;7.108;2023-05-07T09:13:18;22.40;30.00
5466;DHT22;2755;50.728;7.108;2023-05-07T09:18:09;23.10;18.20
5466;DHT22;2755;50.728;7.108;2023-05-07T09:20:37;22.80;15.90
5466;DHT22;2755;50.728;7.108;2023-05-07T09:23:02;23.10;10.40
5466;DHT22;2755;50.728;7.108;2023-05-07T09:25:32;23.20;13.60
5466;DHT22;2755;50.728;7.108;2023-05-07T09:27:59;22.80;12.00
5466;DHT22;2755;50.728;7.108;2023-05-07T09:30:29;22.30;15.40
5466;DHT22;2755;50.728;7.108;2023-05-07T09:32:56;22.50;18.00
5466;DHT22;2755;50.728;7.108;2023-05-07T09:37:53;23.30;15.70
5466;DHT22;2755;50.728;7.108;2023-05-07T09:40:26;23.70;11.30
5466;DHT22;2755;50.728;7.108;2023-05-07T09:42:52;23.90;10.20
5466;DHT22;2755;50.728;7.108;2023-05-07T09:45:30;24.10;10.20
5466;DHT22;2755;50.728;7.108;2023-05-07T09:47:57;24.10;6.30
5466;DHT22;2755;50.728;7.108;2023-05-07T09:50:28;24.20;5.50
5466;DHT22;2755;50.728;7.108;2023-05-07T09:52:55;24.00;5.90
5466;DHT22;2755;50.728;7.108;2023-05-07T09:55:22;24.00;6.90
5466;DHT22;2755;50.728;7.108;2023-05-07T09:57:50;24.30;5.40
5466;DHT22;2755;50.728;7.108;2023-05-07T10:00:18;24.40;8.40
5466;DHT22;2755;50.728;7.108;2023-05-07T10:02:47;25.10;7.00
5466;DHT22;2755;50.728;7.108;2023-05-07T10:05:15;25.50;1.00
5466;DHT22;2755;50.728;7.108;2023-05-07T10:07:41;25.90;1.00
5466;DHT22;2755;50.728;7.108;2023-05-07T10:10:07;26.00;1.00
5466;DHT22;2755;50.728;7.108;2023-05-07T10:12:33;26.10;1.00
5466;DHT22;2755;50.728;7.108;2023-05-07T10:15:09;26.70;1.00
5466;DHT22;2755;50.728;7.108;2023-05-07T10:20:02;27.60;1.00
5466;DHT22;2755;50.728;7.108;2023-05-07T10:22:30;27.20;1.00
5466;DHT22;2755;50.728;7.108;2023-05-07T10:24:59;26.40;1.00
5466;DHT22;2755;50.728;7.108;2023-05-07T10:27:27;26.70;1.00
5466;DHT22;2755;50.728;7.108;2023-05-07T10:32:49;25.30;1.00
5466;DHT22;2755;50.728;7.108;2023-05-07T10:35:26;25.20;1.00
5466;DHT22;2755;50.728;7.108;2023-05-07T10:37:54;25.10;1.00
5466;DHT22;2755;50.728;7.108;2023-05-07T10:40:21;24.90;1.00
5466;DHT22;2755;50.728;7.108;2023-05-07T10:43:05;25.60;1.00
5466;DHT22;2755;50.728;7.108;2023-05-07T10:45:31;25.80;1.00
5466;DHT22;2755;50.728;7.108;2023-05-07T10:50:36;26.10;1.00
5466;DHT22;2755;50.728;7.108;2023-05-07T10:55:48;26.80;1.00
5466;DHT22;2755;50.728;7.108;2023-05-07T10:58:27;27.20;1.00
5466;DHT22;2755;50.728;7.108;2023-05-07T11:03:27;26.80;1.00
5466;DHT22;2755;50.728;7.108;2023-05-07T11:06:08;26.80;1.00
5466;DHT22;2755;50.728;7.108;2023-05-07T11:08:57;27.10;1.00
5466;DHT22;2755;50.728;7.108;2023-05-07T11:11:46;27.00;1.00
5466;DHT22;2755;50.728;7.108;2023-05-07T11:14:14;26.40;1.00
5466;DHT22;2755;50.728;7.108;2023-05-07T11:16:41;25.60;1.00
5466;DHT22;2755;50.728;7.108;2023-05-07T11:21:40;26.00;1.00
5466;DHT22;2755;50.728;7.108;2023-05-07T11:24:08;26.10;1.00
5466;DHT22;2755;50.728;7.108;2023-05-07T11:26:48;26.60;1.00
5466;DHT22;2755;50.728;7.108;2023-05-07T11:29:19;27.10;1.00
5466;DHT22;2755;50.728;7.108;2023-05-07T11:31:52;27.30;1.00
5466;DHT22;2755;50.728;7.108;2023-05-07T11:34:25;27.20;1.00
5466;DHT22;2755;50.728;7.108;2023-05-07T11:36:52;27.40;1.00
5466;DHT22;2755;50.728;7.108;2023-05-07T11:41:50;27.30;1.00
5466;DHT22;2755;50.728;7.108;2023-05-07T11:44:16;27.30;1.00
5466;DHT22;2755;50.728;7.108;2023-05-07T11:46:45;27.00;1.00
5466;DHT22;2755;50.728;7.108;2023-05-07T11:49:11;26.20;1.00
5466;DHT22;2755;50.728;7.108;2023-05-07T11:51:37;26.40;1.00
5466;DHT22;2755;50.728;7.108;2023-05-07T11:54:05;26.00;1.00
5466;DHT22;2755;50.728;7.108;2023-05-07T11:56:34;25.60;1.00
5466;DHT22;2755;50.728;7.108;2023-05-07T11:59:00;26.00;1.00
5466;DHT22;2755;50.728;7.108;2023-05-07T12:01:26;25.00;1.00
5466;DHT22;2755;50.728;7.108;2023-05-07T12:03:52;24.10;1.00
5466;DHT22;2755;50.728;7.108;2023-05-07T12:06:18;24.80;1.00
5466;DHT22;2755;50.728;7.108;2023-05-07T12:08:45;24.30;1.00
5466;DHT22;2755;50.728;7.108;2023-05-07T12:11:23;24.00;1.00
5466;DHT22;2755;50.728;7.108;2023-05-07T12:13:50;22.50;1.00
5466;DHT22;2755;50.728;7.108;2023-05-07T12:16:16;23.60;1.00
5466;DHT22;2755;50.728;7.108;2023-05-07T12:18:42;22.70;1.00
5466;DHT22;2755;50.728;7.108;2023-05-07T12:21:09;23.00;1.00
5466;DHT22;2755;50.728;7.108;2023-05-07T12:23:36;22.80;1.00
5466;DHT22;2755;50.728;7.108;2023-05-07T12:26:02;22.80;1.00
5466;DHT22;2755;50.728;7.108;2023-05-07T12:30:56;23.00;1.00
5466;DHT22;2755;50.728;7.108;2023-05-07T12:33:26;22.50;1.00
5466;DHT22;2755;50.728;7.108;2023-05-07T12:35:54;22.20;1.00
5466;DHT22;2755;50.728;7.108;2023-05-07T12:38:20;22.40;1.00
5466;DHT22;2755;50.728;7.108;2023-05-07T12:40:48;22.10;1.00
5466;DHT22;2755;50.728;7.108;2023-05-07T12:45:43;23.10;1.00
5466;DHT22;2755;50.728;7.108;2023-05-07T12:48:12;22.10;1.00
5466;DHT22;2755;50.728;7.108;2023-05-07T12:50:37;21.60;2.70
5466;DHT22;2755;50.728;7.108;2023-05-07T12:53:06;20.50;10.70
5466;DHT22;2755;50.728;7.108;2023-05-07T12:55:47;19.30;17.90
5466;DHT22;2755;50.728;7.108;2023-05-07T12:58:19;19.00;31.40
5466;DHT22;2755;50.728;7.108;2023-05-07T13:03:24;17.20;49.90
5466;DHT22;2755;50.728;7.108;2023-05-07T13:05:51;17.50;61.30
5466;DHT22;2755;50.728;7.108;2023-05-07T13:08:44;17.00;67.30
5466;DHT22;2755;50.728;7.108;2023-05-07T13:11:10;16.70;81.90
5466;DHT22;2755;50.728;7.108;2023-05-07T13:13:37;17.10;82.10
5466;DHT22;2755;50.728;7.108;2023-05-07T13:16:05;17.30;94.00
5466;DHT22;2755;50.728;7.108;2023-05-07T13:18:32;17.60;91.40
5466;DHT22;2755;50.728;7.108;2023-05-07T13:20:57;17.60;87.00
5466;DHT22;2755;50.728;7.108;2023-05-07T13:23:23;17.30;86.20
5466;DHT22;2755;50.728;7.108;2023-05-07T13:25:49;17.60;79.40
5466;DHT22;2755;50.728;7.108;2023-05-07T13:28:16;17.60;83.60
5466;DHT22;2755;50.728;7.108;2023-05-07T13:30:41;18.00;91.40
5466;DHT22;2755;50.728;7.108;2023-05-07T13:33:07;17.90;79.60
5466;DHT22;2755;50.728;7.108;2023-05-07T13:35:33;18.70;67.80
5466;DHT22;2755;50.728;7.108;2023-05-07T13:37:58;19.00;71.00
5466;DHT22;2755;50.728;7.108;2023-05-07T13:40:24;18.40;60.80
5466;DHT22;2755;50.728;7.108;2023-05-07T13:42:50;19.90;66.40
5466;DHT22;2755;50.728;7.108;2023-05-07T13:45:19;19.40;52.90
5466;DHT22;2755;50.728;7.108;2023-05-07T13:47:46;19.70;43.80
5466;DHT22;2755;50.728;7.108;2023-05-07T13:50:12;19.50;46.00
5466;DHT22;2755;50.728;7.108;2023-05-07T13:52:43;19.80;49.40
5466;DHT22;2755;50.728;7.108;2023-05-07T13:55:11;21.10;52.30
5466;DHT22;2755;50.728;7.108;2023-05-07T13:57:37;20.10;48.30
5466;DHT22;2755;50.728;7.108;2023-05-07T14:00:06;20.00;49.50
5466;DHT22;2755;50.728;7.108;2023-05-07T14:02:35;20.00;46.20
5466;DHT22;2755;50.728;7.108;2023-05-07T14:05:01;20.80;42.90
5466;DHT22;2755;50.728;7.108;2023-05-07T14:07:26;20.70;41.40
5466;DHT22;2755;50.728;7.108;2023-05-07T14:09:52;20.40;36.30
5466;DHT22;2755;50.728;7.108;2023-05-07T14:12:18;20.80;35.70
5466;DHT22;2755;50.728;7.108;2023-05-07T14:14:44;21.20;39.00
5466;DHT22;2755;50.728;7.108;2023-05-07T14:17:10;20.90;35.00
5466;DHT22;2755;50.728;7.108;2023-05-07T14:19:36;21.10;37.20
5466;DHT22;2755;50.728;7.108;2023-05-07T14:22:02;21.70;35.90
5466;DHT22;2755;50.728;7.108;2023-05-07T14:24:27;21.30;33.00
5466;DHT22;2755;50.728;7.108;2023-05-07T14:26:53;20.60;35.20
5466;DHT22;2755;50.728;7.108;2023-05-07T14:29:18;20.50;35.20
5466;DHT22;2755;50.728;7.108;2023-05-07T14:34:11;20.70;32.50
5466;DHT22;2755;50.728;7.108;2023-05-07T14:36:36;20.10;29.20
5466;DHT22;2755;50.728;7.108;2023-05-07T14:39:03;21.30;31.80
5466;DHT22;2755;50.728;7.108;2023-05-07T14:41:29;20.70;33.90
5466;DHT22;2755;50.728;7.108;2023-05-07T14:43:54;20.40;31.30
5466;DHT22;2755;50.728;7.108;2023-05-07T14:46:20;20.40;33.70
5466;DHT22;2755;50.728;7.108;2023-05-07T14:51:12;20.10;33.90
5466;DHT22;2755;50.728;7.108;2023-05-07T14:53:38;20.00;33.40
5466;DHT22;2755;50.728;7.108;2023-05-07T14:56:04;19.90;33.50
5466;DHT22;2755;50.728;7.108;2023-05-07T14:58:31;19.80;33.10
5466;DHT22;2755;50.728;7.108;2023-05-07T15:00:57;19.80;34.70
5466;DHT22;2755;50.728;7.108;2023-05-07T15:03:22;20.20;33.20
5466;DHT22;2755;50.728;7.108;2023-05-07T15:05:48;19.60;34.40
5466;DHT22;2755;50.728;7.108;2023-05-07T15:08:16;19.40;41.00
5466;DHT22;2755;50.728;7.108;2023-05-07T15:10:42;19.10;44.30
5466;DHT22;2755;50.728;7.108;2023-05-07T15:15:34;19.10;57.60
5466;DHT22;2755;50.728;7.108;2023-05-07T15:18:00;19.00;62.00
5466;DHT22;2755;50.728;7.108;2023-05-07T15:20:26;18.10;65.70
5466;DHT22;2755;50.728;7.108;2023-05-07T15:27:44;18.30;86.30
5466;DHT22;2755;50.728;7.108;2023-05-07T15:30:10;18.20;90.20
5466;DHT22;2755;50.728;7.108;2023-05-07T15:32:36;17.50;93.50
5466;DHT22;2755;50.728;7.108;2023-05-07T15:37:30;17.50;99.30
5466;DHT22;2755;50.728;7.108;2023-05-07T15:39:56;17.20;99.90
5466;DHT22;2755;50.728;7.108;2023-05-07T15:42:21;17.50;99.90
5466;DHT22;2755;50.728;7.108;2023-05-07T15:44:47;18.10;99.90
5466;DHT22;2755;50.728;7.108;2023-05-07T15:47:14;17.20;99.90
5466;DHT22;2755;50.728;7.108;2023-05-07T15:49:42;17.30;99.90
5466;DHT22;2755;50.728;7.108;2023-05-07T15:52:08;17.20;99.90
5466;DHT22;2755;50.728;7.108;2023-05-07T15:54:39;17.00;99.90
5466;DHT22;2755;50.728;7.108;2023-05-07T15:59:32;17.30;99.90
5466;DHT22;2755;50.728;7.108;2023-05-07T16:06:52;17.50;99.90
5466;DHT22;2755;50.728;7.108;2023-05-07T16:09:18;18.10;99.90
5466;DHT22;2755;50.728;7.108;2023-05-07T16:16:36;17.20;99.90
5466;DHT22;2755;50.728;7.108;2023-05-07T16:19:03;16.60;99.90
5466;DHT22;2755;50.728;7.108;2023-05-07T16:21:30;16.70;99.90
5466;DHT22;2755;50.728;7.108;2023-05-07T16:23:55;16.50;99.90
5466;DHT22;2755;50.728;7.108;2023-05-07T16:28:47;16.50;99.90
5466;DHT22;2755;50.728;7.108;2023-05-07T16:31:13;16.40;99.90
5466;DHT22;2755;50.728;7.108;2023-05-07T16:33:38;16.20;99.90
5466;DHT22;2755;50.728;7.108;2023-05-07T16:36:04;16.90;99.90
5466;DHT22;2755;50.728;7.108;2023-05-07T16:38:30;16.60;99.90
5466;DHT22;2755;50.728;7.108;2023-05-07T16:40:58;16.80;99.90
5466;DHT22;2755;50.728;7.108;2023-05-07T16:43:23;16.30;99.90
5466;DHT22;2755;50.728;7.108;2023-05-07T16:48:16;16.70;99.90
5466;DHT22;2755;50.728;7.108;2023-05-07T16:53:12;16.60;99.90
5466;DHT22;2755;50.728;7.108;2023-05-07T16:55:37;16.50;99.90
5466;DHT22;2755;50.728;7.108;2023-05-07T16:58:07;16.10;99.90
5466;DHT22;2755;50.728;7.108;2023-05-07T17:00:33;16.40;99.90
5466;DHT22;2755;50.728;7.108;2023-05-07T17:02:59;16.50;99.90
5466;DHT22;2755;50.728;7.108;2023-05-07T17:05:25;16.50;99.90
5466;DHT22;2755;50.728;7.108;2023-05-07T17:07:50;16.10;99.90
5466;DHT22;2755;50.728;7.108;2023-05-07T17:10:16;16.70;99.90
5466;DHT22;2755;50.728;7.108;2023-05-07T17:12:42;17.00;99.90
5466;DHT22;2755;50.728;7.108;2023-05-07T17:15:08;16.80;99.90
5466;DHT22;2755;50.728;7.108;2023-05-07T17:17:34;16.20;99.90
5466;DHT22;2755;50.728;7.108;2023-05-07T17:20:00;16.10;99.90
5466;DHT22;2755;50.728;7.108;2023-05-07T17:22:26;16.50;99.90
5466;DHT22;2755;50.728;7.108;2023-05-07T17:24:51;15.70;99.90
5466;DHT22;2755;50.728;7.108;2023-05-07T17:27:17;16.90;99.90
5466;DHT22;2755;50.728;7.108;2023-05-07T17:29:43;16.00;99.90
5466;DHT22;2755;50.728;7.108;2023-05-07T17:32:08;16.20;99.90
5466;DHT22;2755;50.728;7.108;2023-05-07T17:34:34;16.60;99.90
5466;DHT22;2755;50.728;7.108;2023-05-07T17:39:26;15.90;99.90
5466;DHT22;2755;50.728;7.108;2023-05-07T17:41:51;16.30;99.90
5466;DHT22;2755;50.728;7.108;2023-05-07T17:44:17;15.80;99.90
5466;DHT22;2755;50.728;7.108;2023-05-07T17:46:43;16.10;99.90
5466;DHT22;2755;50.728;7.108;2023-05-07T17:49:08;16.90;99.90
5466;DHT22;2755;50.728;7.108;2023-05-07T17:51:34;16.10;99.90
5466;DHT22;2755;50.728;7.108;2023-05-07T17:54:00;16.60;99.90
5466;DHT22;2755;50.728;7.108;2023-05-07T17:56:25;16.70;99.90
5466;DHT22;2755;50.728;7.108;2023-05-07T17:58:51;15.80;99.90
5466;DHT22;2755;50.728;7.108;2023-05-07T18:01:19;16.10;99.90